Sevilla Aeropuerto en Andalucia

latitud = 37° 25' 00''N | longitud = 005° 52' 45''W
34 metros sobre el nivel del mar |

Fecha, hora, temperatura, viento dirección y velocidad, humedad y presión.

  • 25-09-2017 00:00:00 | 25.10°C | Sudoeste |8.00 km/h | 51.00% | 1015.90 hPa
  • 24-09-2017 23:00:00 | 26.10°C | Oeste |6.00 km/h | 48.00% | 1016.10 hPa
  • 24-09-2017 22:00:00 | 27.80°C | Oeste |14.00 km/h | 43.00% | 1015.70 hPa
  • 24-09-2017 21:00:00 | 28.30°C | Sudoeste |15.00 km/h | 45.00% | 1015.10 hPa
  • 24-09-2017 20:00:00 | 31.40°C | Sudoeste |6.00 km/h | 24.00% | 1014.70 hPa
  • 24-09-2017 19:00:00 | 32.60°C | Oeste |6.00 km/h | 25.00% | 1014.60 hPa
  • 24-09-2017 18:00:00 | 32.90°C | Noroeste |13.00 km/h | 26.00% | 1014.70 hPa
  • 24-09-2017 17:00:00 | 32.80°C | Oeste |8.00 km/h | 26.00% | 1014.90 hPa
  • 24-09-2017 16:00:00 | 32.10°C | Noroeste |6.00 km/h | 28.00% | 1015.30 hPa
  • 24-09-2017 15:00:00 | 30.60°C | Oeste |5.00 km/h | 34.00% | 1016.00 hPa
  • 24-09-2017 14:00:00 | 29.00°C | Oeste |3.00 km/h | 41.00% | 1016.60 hPa
  • 24-09-2017 13:00:00 | 27.80°C | Oeste |5.00 km/h | 47.00% | 1017.10 hPa
  • 24-09-2017 12:00:00 | 25.90°C | Noroeste |4.00 km/h | 54.00% | 1017.50 hPa
  • 24-09-2017 11:00:00 | 24.00°C | Nordeste |3.00 km/h | 62.00% | 1017.50 hPa
  • 24-09-2017 10:00:00 | 20.70°C | Norte |3.00 km/h | 78.00% | 1017.20 hPa
  • 24-09-2017 09:00:00 | 19.40°C | Este |2.00 km/h | 87.00% | 1016.60 hPa
  • 24-09-2017 08:00:00 | 18.60°C | Calma |0.00 km/h | 88.00% | 1016.30 hPa
  • 24-09-2017 07:00:00 | 19.00°C | Nordeste |5.00 km/h | 84.00% | 1016.00 hPa
  • 24-09-2017 06:00:00 | 20.40°C | Calma |0.00 km/h | 82.00% | 1015.70 hPa
  • 24-09-2017 05:00:00 | 20.90°C | Sudoeste |10.00 km/h | 83.00% | 1015.70 hPa
  • 24-09-2017 04:00:00 | 21.50°C | Sudoeste |15.00 km/h | 78.00% | 1015.80 hPa
  • 24-09-2017 03:00:00 | 22.00°C | Sur |11.00 km/h | 73.00% | 1016.00 hPa
  • 24-09-2017 02:00:00 | 22.80°C | Sur |12.00 km/h | 69.00% | 1015.60 hPa
  • 24-09-2017 01:00:00 | 24.20°C | Sudoeste |6.00 km/h | 63.00% | 1015.30 hPa
    • Datos gráficos mensuales de Sevilla Aeropuerto: